Time;durP1;ratioP1;P1;durP2;ratioP2;P2;SDS_P1;SDS_P2;PMS_P1;PMS_P2;Temp;Humidity;BMP_temperature;BMP_pressure;BME280_temperature;BME280_humidity;BME280_pressure;Samples;Min_cycle;Max_cycle;Signal;HPM_P1;HPM_P2
2022/07/01 00:01:03;;;;;;;7.00;5.43;;;;;;;;;;5136424;27;20513;-66
2022/07/01 00:03:30;;;;;;;5.30;4.80;;;;;;;;;;5136205;27;20445;-67
2022/07/01 00:05:58;;;;;;;4.67;4.10;;;;;;;;;;5136342;27;20445;-67
2022/07/01 00:08:25;;;;;;;5.77;4.33;;;;;;;;;;5136506;27;20892;-67
2022/07/01 00:10:52;;;;;;;5.03;4.50;;;;;;;;;;5135903;27;20525;-67
2022/07/01 00:13:19;;;;;;;5.87;5.03;;;;;;;;;;5136124;27;20518;-67
2022/07/01 00:15:46;;;;;;;4.73;4.33;;;;;;;;;;5135653;27;20994;-67
2022/07/01 00:18:15;;;;;;;4.57;4.13;;;;;;;;;;5135523;27;20539;-67
2022/07/01 00:20:42;;;;;;;5.47;4.27;;;;;;;;;;5136001;27;20439;-67
2022/07/01 00:23:09;;;;;;;4.80;4.40;;;;;;;;;;5135845;27;20449;-67
2022/07/01 00:25:37;;;;;;;4.37;3.97;;;;;;;;;;5135837;27;20457;-67
2022/07/01 00:28:04;;;;;;;5.00;4.57;;;;;;;;;;5135867;27;20537;-67
2022/07/01 00:30:31;;;;;;;7.17;4.93;;;;;;;;;;5135467;27;20485;-68
2022/07/01 00:32:59;;;;;;;4.57;4.13;;;;;;;;;;5135823;27;20475;-66
2022/07/01 00:35:27;;;;;;;5.07;4.57;;;;;;;;;;5135387;27;20437;-67
2022/07/01 00:37:55;;;;;;;8.30;5.17;;;;;;;;;;5135730;27;21010;-67
2022/07/01 00:40:22;;;;;;;6.33;5.20;;;;;;;;;;5135212;27;20534;-66
2022/07/01 00:42:49;;;;;;;4.43;4.13;;;;;;;;;;5135592;27;20432;-66
2022/07/01 00:45:16;;;;;;;5.00;4.50;;;;;;;;;;5135092;27;20538;-67
2022/07/01 00:47:44;;;;;;;6.93;5.10;;;;;;;;;;5135490;27;20536;-68
2022/07/01 00:50:12;;;;;;;5.80;5.20;;;;;;;;;;5135494;27;20530;-67
2022/07/01 00:52:41;;;;;;;6.33;5.83;;;;;;;;;;5134621;27;20955;-67
2022/07/01 00:55:10;;;;;;;5.40;5.00;;;;;;;;;;5135120;27;20439;-67
2022/07/01 00:57:38;;;;;;;6.40;5.80;;;;;;;;;;5134933;27;20509;-67
2022/07/01 01:00:06;;;;;;;5.60;5.10;;;;;;;;;;5135273;27;20436;-67
2022/07/01 01:02:33;;;;;;;7.30;6.50;;;;;;;;;;5135191;27;20432;-67
2022/07/01 01:05:00;;;;;;;6.67;6.07;;;;;;;;;;5135071;27;20482;-67
2022/07/01 01:07:28;;;;;;;6.80;6.10;;;;;;;;;;5135508;27;20532;-67
2022/07/01 01:09:57;;;;;;;7.77;6.30;;;;;;;;;;5135193;27;20438;-67
2022/07/01 01:12:26;;;;;;;7.53;6.77;;;;;;;;;;5134716;27;20534;-68
2022/07/01 01:14:54;;;;;;;8.33;7.53;;;;;;;;;;5134853;27;20522;-67
2022/07/01 01:17:22;;;;;;;8.50;7.70;;;;;;;;;;5134923;27;20485;-68
2022/07/01 01:19:49;;;;;;;8.40;7.33;;;;;;;;;;5134860;27;20440;-67
2022/07/01 01:22:19;;;;;;;8.00;7.30;;;;;;;;;;5135212;27;20811;-67
2022/07/01 01:24:47;;;;;;;9.47;7.83;;;;;;;;;;5134964;27;20452;-66
2022/07/01 01:27:15;;;;;;;8.50;7.30;;;;;;;;;;5135048;27;20439;-68
2022/07/01 01:29:43;;;;;;;9.33;7.90;;;;;;;;;;5135237;27;20438;-67
2022/07/01 01:32:10;;;;;;;9.33;8.00;;;;;;;;;;5134448;27;20934;-68
2022/07/01 01:34:38;;;;;;;9.20;8.00;;;;;;;;;;5134314;27;20481;-67
2022/07/01 01:37:06;;;;;;;9.77;8.87;;;;;;;;;;5134621;27;20830;-67
2022/07/01 01:39:36;;;;;;;9.53;8.60;;;;;;;;;;5134888;27;20522;-68
2022/07/01 01:42:04;;;;;;;9.30;8.43;;;;;;;;;;5134744;27;20426;-67
2022/07/01 01:44:31;;;;;;;10.23;9.13;;;;;;;;;;5134155;28;20528;-67
2022/07/01 01:46:58;;;;;;;13.17;10.97;;;;;;;;;;5134832;28;20532;-67
2022/07/01 01:49:26;;;;;;;11.47;10.30;;;;;;;;;;5134278;27;20875;-67
2022/07/01 01:51:53;;;;;;;13.80;10.83;;;;;;;;;;5134679;28;20777;-67
2022/07/01 01:54:20;;;;;;;13.87;11.43;;;;;;;;;;5134132;28;20530;-67
2022/07/01 01:56:49;;;;;;;12.30;11.10;;;;;;;;;;5134536;28;20469;-68
2022/07/01 01:59:16;;;;;;;12.47;11.10;;;;;;;;;;5134777;28;20521;-67
2022/07/01 02:01:43;;;;;;;19.67;12.20;;;;;;;;;;5134587;28;20441;-68
2022/07/01 02:04:10;;;;;;;17.60;12.60;;;;;;;;;;5134955;27;20829;-68
2022/07/01 02:06:40;;;;;;;12.17;10.90;;;;;;;;;;5138473;27;20438;-68
2022/07/01 02:09:08;;;;;;;16.30;12.23;;;;;;;;;;5138735;27;20490;-68
2022/07/01 02:11:35;;;;;;;14.07;11.87;;;;;;;;;;5138545;27;20439;-68
2022/07/01 02:14:04;;;;;;;15.33;13.70;;;;;;;;;;5138806;27;20484;-68
2022/07/01 02:16:31;;;;;;;20.13;13.97;;;;;;;;;;5138005;27;20969;-68
2022/07/01 02:18:59;;;;;;;14.90;13.10;;;;;;;;;;5138110;27;21001;-68
2022/07/01 02:21:26;;;;;;;16.37;13.70;;;;;;;;;;5138452;27;20450;-68
2022/07/01 02:23:53;;;;;;;15.93;14.40;;;;;;;;;;5138535;27;20520;-68
2022/07/01 02:26:20;;;;;;;16.63;15.03;;;;;;;;;;5137835;27;20444;-68
2022/07/01 02:28:48;;;;;;;17.13;14.83;;;;;;;;;;5138568;27;20474;-68
2022/07/01 02:31:16;;;;;;;19.20;17.20;;;;;;;;;;5138064;27;20478;-67
2022/07/01 02:33:43;;;;;;;17.87;15.97;;;;;;;;;;5138262;27;20465;-68
2022/07/01 02:36:11;;;;;;;20.27;15.50;;;;;;;;;;5138117;27;20485;-67
2022/07/01 02:38:38;;;;;;;20.27;18.13;;;;;;;;;;5137573;27;20554;-68
2022/07/01 02:41:05;;;;;;;18.23;16.33;;;;;;;;;;5137903;27;20482;-68
2022/07/01 02:43:32;;;;;;;19.20;17.23;;;;;;;;;;5137655;27;20444;-68
2022/07/01 02:46:00;;;;;;;18.17;16.37;;;;;;;;;;5137724;27;20465;-67
2022/07/01 02:48:28;;;;;;;18.63;16.73;;;;;;;;;;5137905;27;20473;-67
2022/07/01 02:50:55;;;;;;;19.37;17.03;;;;;;;;;;5137442;27;20473;-67
2022/07/01 02:53:23;;;;;;;20.30;18.03;;;;;;;;;;5138035;27;20438;-68
2022/07/01 02:55:51;;;;;;;18.73;16.13;;;;;;;;;;5137301;27;20475;-67
2022/07/01 02:58:18;;;;;;;21.90;17.80;;;;;;;;;;5137242;27;20473;-68
2022/07/01 03:00:48;;;;;;;20.40;16.13;;;;;;;;;;5137208;27;20442;-68
2022/07/01 03:03:15;;;;;;;19.83;15.10;;;;;;;;;;5137611;27;20438;-67
2022/07/01 03:05:44;;;;;;;17.70;15.60;;;;;;;;;;5137671;27;20442;-67
2022/07/01 03:08:12;;;;;;;20.50;16.77;;;;;;;;;;5137489;27;20882;-67
2022/07/01 03:10:39;;;;;;;20.67;17.47;;;;;;;;;;5137019;27;20472;-68
2022/07/01 03:13:06;;;;;;;20.27;18.17;;;;;;;;;;5137365;27;20529;-67
2022/07/01 03:15:34;;;;;;;18.83;16.07;;;;;;;;;;5136604;27;20442;-67
2022/07/01 03:18:01;;;;;;;21.90;16.77;;;;;;;;;;5137212;27;20903;-68
2022/07/01 03:20:28;;;;;;;23.17;16.93;;;;;;;;;;5137103;27;20435;-68
2022/07/01 03:22:56;;;;;;;21.30;17.13;;;;;;;;;;5137142;27;20440;-68
2022/07/01 03:25:24;;;;;;;19.60;17.47;;;;;;;;;;5137049;27;20439;-68
2022/07/01 03:27:51;;;;;;;23.17;17.23;;;;;;;;;;5137267;27;20439;-69
2022/07/01 03:30:18;;;;;;;20.80;16.90;;;;;;;;;;5136663;27;20449;-68
2022/07/01 03:32:46;;;;;;;23.13;16.50;;;;;;;;;;5136876;27;20438;-68
2022/07/01 03:37:59;;;;;;;24.43;17.53;;;;;;;;;;5136564;27;20457;-68
2022/07/01 03:40:26;;;;;;;20.83;18.20;;;;;;;;;;5136812;27;20528;-69
2022/07/01 03:42:53;;;;;;;21.53;17.77;;;;;;;;;;5136726;27;20539;-68
2022/07/01 03:45:21;;;;;;;22.30;17.43;;;;;;;;;;5136797;27;20840;-68
2022/07/01 03:47:49;;;;;;;25.53;19.40;;;;;;;;;;5136824;27;20533;-68
2022/07/01 03:50:16;;;;;;;22.80;17.30;;;;;;;;;;5136889;27;20473;-69
2022/07/01 03:52:44;;;;;;;26.73;18.93;;;;;;;;;;5136307;27;20775;-68
2022/07/01 03:55:12;;;;;;;24.57;18.90;;;;;;;;;;5136244;27;20473;-68
2022/07/01 03:57:39;;;;;;;23.47;17.40;;;;;;;;;;5136800;27;20830;-69
2022/07/01 04:00:07;;;;;;;23.23;17.87;;;;;;;;;;5135695;27;20531;-69
2022/07/01 04:02:34;;;;;;;26.10;19.17;;;;;;;;;;5136023;27;20460;-69
2022/07/01 04:05:01;;;;;;;27.63;20.57;;;;;;;;;;5136034;27;20441;-69
2022/07/01 04:07:29;;;;;;;23.90;20.00;;;;;;;;;;5135933;27;20538;-69
2022/07/01 04:09:56;;;;;;;22.70;18.23;;;;;;;;;;5135970;27;20531;-69
2022/07/01 04:12:25;;;;;;;28.10;19.97;;;;;;;;;;5136380;27;20862;-69
2022/07/01 04:14:52;;;;;;;29.20;21.30;;;;;;;;;;5136147;27;20525;-69
2022/07/01 04:17:19;;;;;;;31.27;22.67;;;;;;;;;;5135721;27;20488;-69
2022/07/01 04:19:47;;;;;;;32.50;23.90;;;;;;;;;;5136296;27;20528;-69
2022/07/01 04:24:59;;;;;;;37.77;24.77;;;;;;;;;;5136071;27;20455;-69
2022/07/01 04:27:27;;;;;;;36.07;26.03;;;;;;;;;;5135286;27;20526;-69
2022/07/01 04:29:54;;;;;;;42.83;26.80;;;;;;;;;;5134983;27;20434;-68
2022/07/01 04:32:21;;;;;;;38.97;28.27;;;;;;;;;;5135732;27;20991;-68
2022/07/01 04:34:49;;;;;;;40.50;28.07;;;;;;;;;;5135906;27;20442;-68
2022/07/01 04:37:16;;;;;;;47.33;29.07;;;;;;;;;;5135551;27;20475;-67
2022/07/01 04:39:43;;;;;;;37.97;27.83;;;;;;;;;;5135297;27;20451;-68
2022/07/01 04:42:09;;;;;;;45.37;30.97;;;;;;;;;;5135474;27;20867;-68
2022/07/01 04:44:39;;;;;;;39.07;28.30;;;;;;;;;;5135592;27;20441;-68
2022/07/01 04:47:06;;;;;;;41.60;30.20;;;;;;;;;;5135117;27;20877;-68
2022/07/01 04:49:42;;;;;;;41.33;29.73;;;;;;;;;;5132345;27;20276;-68
2022/07/01 04:52:10;;;;;;;38.53;27.03;;;;;;;;;;5111819;28;20788;-68
2022/07/01 04:54:37;;;;;;;42.13;28.50;;;;;;;;;;5111034;28;20478;-68
2022/07/01 04:57:04;;;;;;;35.93;26.57;;;;;;;;;;5111593;28;20531;-68
2022/07/01 04:59:32;;;;;;;37.70;29.20;;;;;;;;;;5111208;28;20523;-68
2022/07/01 05:01:59;;;;;;;40.00;28.03;;;;;;;;;;5111193;28;20468;-68
2022/07/01 05:04:28;;;;;;;38.43;25.57;;;;;;;;;;5110871;28;20523;-68
2022/07/01 05:06:56;;;;;;;33.10;24.70;;;;;;;;;;5110794;28;20437;-68
2022/07/01 05:09:23;;;;;;;32.23;25.17;;;;;;;;;;5110929;28;20484;-68
2022/07/01 05:11:50;;;;;;;30.23;23.60;;;;;;;;;;5110835;28;20950;-68
2022/07/01 05:14:18;;;;;;;31.27;24.03;;;;;;;;;;5110906;28;20435;-67
2022/07/01 05:16:45;;;;;;;27.67;22.40;;;;;;;;;;5110596;28;20920;-68
2022/07/01 05:22:01;;;;;;;23.57;20.73;;;;;;;;;;5110774;28;20402;-69
2022/07/01 05:24:30;;;;;;;23.90;19.20;;;;;;;;;;5110472;28;20509;-69
2022/07/01 05:26:58;;;;;;;24.50;19.53;;;;;;;;;;5110792;28;20481;-68
2022/07/01 05:29:25;;;;;;;22.50;18.77;;;;;;;;;;5110031;28;20476;-69
2022/07/01 05:31:52;;;;;;;25.37;20.23;;;;;;;;;;5110426;28;20825;-69
2022/07/01 05:34:20;;;;;;;23.40;19.57;;;;;;;;;;5110253;28;20481;-69
2022/07/01 05:36:47;;;;;;;26.07;19.30;;;;;;;;;;5110537;28;20518;-70
2022/07/01 05:39:15;;;;;;;26.13;21.80;;;;;;;;;;5110266;28;20445;-69
2022/07/01 05:41:43;;;;;;;24.43;20.43;;;;;;;;;;5110352;28;20486;-69
2022/07/01 05:44:10;;;;;;;23.43;19.40;;;;;;;;;;5110281;28;20447;-69
2022/07/01 05:46:37;;;;;;;24.13;19.70;;;;;;;;;;5110337;28;20535;-69
2022/07/01 05:49:05;;;;;;;24.00;18.40;;;;;;;;;;5109579;28;20942;-69
2022/07/01 05:51:32;;;;;;;24.50;19.33;;;;;;;;;;5110095;28;20486;-70
2022/07/01 05:54:00;;;;;;;25.70;20.13;;;;;;;;;;5109616;28;20538;-70
2022/07/01 05:56:29;;;;;;;23.63;19.53;;;;;;;;;;5110137;28;20439;-69
2022/07/01 05:58:56;;;;;;;20.83;18.60;;;;;;;;;;5108362;28;20534;-69
2022/07/01 06:01:23;;;;;;;23.17;18.83;;;;;;;;;;5095936;28;20446;-69
2022/07/01 06:03:51;;;;;;;19.60;16.57;;;;;;;;;;5096499;28;20436;-69
2022/07/01 06:06:19;;;;;;;21.97;17.10;;;;;;;;;;5096203;28;20526;-69
2022/07/01 06:08:46;;;;;;;19.90;16.70;;;;;;;;;;5096224;28;20476;-69
2022/07/01 06:11:14;;;;;;;20.17;16.87;;;;;;;;;;5096462;28;20475;-69
2022/07/01 06:13:43;;;;;;;22.37;17.00;;;;;;;;;;5096035;28;20450;-69
2022/07/01 06:16:10;;;;;;;19.53;16.73;;;;;;;;;;5096174;28;20446;-69
2022/07/01 06:18:37;;;;;;;21.60;16.47;;;;;;;;;;5095675;28;20510;-69
2022/07/01 06:21:05;;;;;;;23.30;17.50;;;;;;;;;;5095854;28;20479;-70
2022/07/01 06:23:32;;;;;;;20.27;17.03;;;;;;;;;;5096043;28;20873;-70
2022/07/01 06:25:59;;;;;;;22.53;17.70;;;;;;;;;;5096466;28;20482;-69
2022/07/01 06:28:29;;;;;;;21.73;16.33;;;;;;;;;;5095456;28;20478;-70
2022/07/01 06:30:58;;;;;;;23.40;16.30;;;;;;;;;;5095972;28;20446;-69
2022/07/01 06:33:29;;;;;;;20.80;16.83;;;;;;;;;;5095853;28;20493;-70
2022/07/01 06:35:56;;;;;;;18.33;14.70;;;;;;;;;;5096266;28;20498;-69
2022/07/01 06:38:24;;;;;;;20.53;14.67;;;;;;;;;;5095696;28;20453;-68
2022/07/01 06:43:32;;;;;;;15.60;14.00;;;;;;;;;;5094479;28;20516;-68
2022/07/01 06:46:01;;;;;;;18.67;14.43;;;;;;;;;;5095917;28;20842;-69
2022/07/01 06:48:28;;;;;;;21.67;15.80;;;;;;;;;;5095029;28;20575;-70
2022/07/01 06:50:55;;;;;;;16.57;14.80;;;;;;;;;;5095600;28;20804;-69
2022/07/01 06:53:22;;;;;;;23.70;14.57;;;;;;;;;;5095299;28;20442;-69
2022/07/01 06:55:50;;;;;;;19.90;14.60;;;;;;;;;;5095168;28;20475;-70
2022/07/01 06:58:17;;;;;;;15.07;13.37;;;;;;;;;;5095162;28;20444;-69
2022/07/01 07:00:44;;;;;;;16.90;14.20;;;;;;;;;;5095187;28;20450;-69
2022/07/01 07:03:13;;;;;;;18.30;13.40;;;;;;;;;;5095679;28;20484;-69
2022/07/01 07:05:40;;;;;;;17.87;13.63;;;;;;;;;;5095353;28;20531;-70
2022/07/01 07:08:07;;;;;;;16.63;14.17;;;;;;;;;;5094863;28;20446;-70
2022/07/01 07:10:35;;;;;;;15.73;13.50;;;;;;;;;;5094819;28;20490;-70
2022/07/01 07:13:02;;;;;;;16.33;14.00;;;;;;;;;;5094532;28;20868;-70
2022/07/01 07:15:29;;;;;;;14.80;12.83;;;;;;;;;;5094737;28;20469;-70
2022/07/01 07:17:57;;;;;;;17.40;13.73;;;;;;;;;;5095100;28;20799;-70
2022/07/01 07:20:26;;;;;;;15.93;12.60;;;;;;;;;;5095070;28;20469;-71
2022/07/01 07:22:53;;;;;;;17.37;13.40;;;;;;;;;;5094699;28;20480;-70
2022/07/01 07:25:21;;;;;;;15.43;13.60;;;;;;;;;;5094858;28;20503;-70
2022/07/01 07:27:48;;;;;;;16.27;14.30;;;;;;;;;;5095500;28;20440;-70
2022/07/01 07:30:16;;;;;;;16.60;13.53;;;;;;;;;;5094726;28;20487;-70
2022/07/01 07:32:43;;;;;;;17.10;14.20;;;;;;;;;;5094533;28;20783;-70
2022/07/01 07:35:11;;;;;;;16.17;13.43;;;;;;;;;;5094361;28;20530;-71
2022/07/01 07:37:40;;;;;;;15.57;13.30;;;;;;;;;;5094382;28;20472;-70
2022/07/01 07:40:09;;;;;;;20.53;14.90;;;;;;;;;;5094836;28;20527;-71
2022/07/01 07:42:37;;;;;;;14.17;12.60;;;;;;;;;;5094627;28;20439;-70
2022/07/01 07:45:06;;;;;;;16.07;13.63;;;;;;;;;;5094572;28;20475;-70
2022/07/01 07:47:33;;;;;;;16.97;12.50;;;;;;;;;;5094062;28;20487;-70
2022/07/01 07:50:01;;;;;;;16.60;13.10;;;;;;;;;;5094055;28;20578;-70
2022/07/01 07:52:28;;;;;;;13.23;11.80;;;;;;;;;;5094484;28;20467;-70
2022/07/01 07:54:57;;;;;;;14.47;13.07;;;;;;;;;;5093923;28;20519;-70
2022/07/01 07:57:24;;;;;;;18.63;13.20;;;;;;;;;;5094067;28;20447;-70
2022/07/01 07:59:51;;;;;;;14.60;12.50;;;;;;;;;;5094357;28;20524;-70
2022/07/01 08:02:18;;;;;;;14.47;12.97;;;;;;;;;;5094276;28;20518;-70
2022/07/01 08:04:46;;;;;;;14.60;13.00;;;;;;;;;;5094236;28;20513;-69
2022/07/01 08:07:13;;;;;;;18.30;13.13;;;;;;;;;;5093857;28;20525;-70
2022/07/01 08:09:45;;;;;;;15.00;13.50;;;;;;;;;;5093978;28;20479;-69
2022/07/01 08:12:14;;;;;;;13.93;12.13;;;;;;;;;;5094627;28;20443;-69
2022/07/01 08:14:41;;;;;;;14.90;13.33;;;;;;;;;;5093202;28;20540;-69
2022/07/01 08:17:08;;;;;;;13.33;11.93;;;;;;;;;;5094028;28;20458;-69
2022/07/01 08:19:35;;;;;;;13.57;12.13;;;;;;;;;;5093638;28;20477;-69
2022/07/01 08:22:03;;;;;;;14.70;10.90;;;;;;;;;;5094263;28;20872;-70
2022/07/01 08:24:30;;;;;;;10.83;9.80;;;;;;;;;;5093918;28;20522;-69
2022/07/01 08:26:57;;;;;;;11.33;9.73;;;;;;;;;;5093513;28;20444;-71
2022/07/01 08:29:26;;;;;;;12.30;9.50;;;;;;;;;;5093439;28;20483;-70
2022/07/01 08:31:53;;;;;;;11.40;9.33;;;;;;;;;;5093510;28;21031;-71
2022/07/01 08:34:20;;;;;;;11.50;9.60;;;;;;;;;;5093749;28;20531;-70
2022/07/01 08:36:48;;;;;;;11.87;10.63;;;;;;;;;;5093651;28;20543;-70
2022/07/01 08:39:15;;;;;;;14.10;10.00;;;;;;;;;;5093379;28;21018;-70
2022/07/01 08:41:43;;;;;;;11.20;9.27;;;;;;;;;;5093268;28;20448;-70
2022/07/01 08:44:11;;;;;;;10.23;9.13;;;;;;;;;;5093872;28;20461;-70
2022/07/01 08:46:39;;;;;;;11.73;8.40;;;;;;;;;;5093165;28;20438;-70
2022/07/01 08:49:07;;;;;;;9.27;7.30;;;;;;;;;;5093473;28;21004;-70
2022/07/01 08:51:34;;;;;;;8.33;6.43;;;;;;;;;;5093172;28;20463;-70
2022/07/01 08:54:01;;;;;;;9.70;7.17;;;;;;;;;;5093218;28;20480;-70
2022/07/01 08:56:45;;;;;;;6.73;6.07;;;;;;;;;;5093667;28;20478;-70
2022/07/01 08:59:13;;;;;;;10.10;7.30;;;;;;;;;;5093408;28;20476;-70
2022/07/01 09:01:42;;;;;;;7.20;5.97;;;;;;;;;;5093565;28;20550;-70
2022/07/01 09:04:15;;;;;;;10.13;6.37;;;;;;;;;;5093471;28;20461;-70
2022/07/01 09:06:42;;;;;;;7.70;6.87;;;;;;;;;;5093078;28;20579;-70
2022/07/01 09:09:13;;;;;;;6.93;6.30;;;;;;;;;;5093461;28;20506;-69
2022/07/01 09:11:45;;;;;;;8.53;6.23;;;;;;;;;;5093748;28;20430;-71
2022/07/01 09:14:12;;;;;;;6.07;5.57;;;;;;;;;;5093647;28;20447;-70
2022/07/01 09:16:45;;;;;;;5.90;4.60;;;;;;;;;;5092898;28;20961;-70
2022/07/01 09:19:13;;;;;;;7.07;5.23;;;;;;;;;;5093388;28;20540;-70
2022/07/01 09:21:40;;;;;;;5.43;4.93;;;;;;;;;;5093268;28;20835;-69
2022/07/01 09:24:23;;;;;;;6.00;5.40;;;;;;;;;;5093321;28;20436;-71
2022/07/01 09:26:53;;;;;;;6.73;4.97;;;;;;;;;;5093453;28;20431;-70
2022/07/01 09:29:20;;;;;;;6.13;4.53;;;;;;;;;;5093178;28;20484;-70
2022/07/01 09:31:51;;;;;;;9.30;5.50;;;;;;;;;;5093121;28;20471;-70
2022/07/01 09:34:18;;;;;;;4.47;4.07;;;;;;;;;;5093306;28;20431;-70
2022/07/01 09:36:53;;;;;;;4.20;3.90;;;;;;;;;;5096529;28;20477;-69
2022/07/01 09:39:20;;;;;;;8.73;4.93;;;;;;;;;;5097340;28;20512;-70
2022/07/01 09:41:47;;;;;;;6.43;4.70;;;;;;;;;;5096556;28;20520;-70
2022/07/01 09:44:15;;;;;;;7.00;5.37;;;;;;;;;;5096512;28;20530;-70
2022/07/01 09:46:54;;;;;;;6.63;5.70;;;;;;;;;;5096750;28;20531;-70
2022/07/01 09:49:21;;;;;;;5.70;5.10;;;;;;;;;;5096229;28;20837;-70
2022/07/01 09:51:50;;;;;;;8.53;4.87;;;;;;;;;;5096685;28;20446;-70
2022/07/01 09:54:17;;;;;;;6.00;5.40;;;;;;;;;;5096770;28;20432;-70
2022/07/01 09:56:45;;;;;;;4.87;4.37;;;;;;;;;;5096605;28;20811;-70
2022/07/01 09:59:12;;;;;;;4.93;4.40;;;;;;;;;;5096284;28;21012;-70
2022/07/01 10:01:40;;;;;;;4.50;4.10;;;;;;;;;;5096198;28;20470;-70
2022/07/01 10:04:10;;;;;;;4.13;3.73;;;;;;;;;;5096759;28;20532;-70
2022/07/01 10:06:48;;;;;;;4.50;3.90;;;;;;;;;;5096527;28;20432;-69
2022/07/01 10:09:20;;;;;;;4.70;4.20;;;;;;;;;;5096590;28;20528;-70
2022/07/01 10:12:05;;;;;;;4.37;4.07;;;;;;;;;;5096395;28;20438;-70
2022/07/01 10:14:33;;;;;;;5.40;4.37;;;;;;;;;;5096158;28;20424;-70
2022/07/01 10:17:00;;;;;;;3.87;3.57;;;;;;;;;;5096292;28;20855;-70
2022/07/01 10:19:30;;;;;;;4.93;3.33;;;;;;;;;;5096441;28;20872;-71
2022/07/01 10:21:58;;;;;;;3.63;2.67;;;;;;;;;;5096067;28;20949;-70
2022/07/01 10:24:27;;;;;;;4.30;3.27;;;;;;;;;;5096247;28;20814;-70
2022/07/01 10:26:54;;;;;;;5.00;3.33;;;;;;;;;;5095851;28;20548;-70
2022/07/01 10:29:28;;;;;;;3.23;3.03;;;;;;;;;;5095906;28;20476;-70
2022/07/01 10:31:59;;;;;;;4.00;3.60;;;;;;;;;;5095576;28;20441;-70
2022/07/01 10:34:34;;;;;;;4.67;4.27;;;;;;;;;;5096273;28;20431;-70
2022/07/01 10:37:02;;;;;;;5.50;3.50;;;;;;;;;;5096106;28;20783;-69
2022/07/01 10:39:30;;;;;;;5.20;3.33;;;;;;;;;;5095521;28;20487;-69
2022/07/01 10:42:02;;;;;;;3.73;3.40;;;;;;;;;;5095689;28;20529;-69
2022/07/01 10:44:34;;;;;;;5.10;3.67;;;;;;;;;;5095442;28;20509;-69
2022/07/01 10:47:04;;;;;;;5.63;3.50;;;;;;;;;;5095401;28;20449;-69
2022/07/01 10:49:50;;;;;;;4.07;3.77;;;;;;;;;;5096289;28;20923;-69
2022/07/01 10:52:18;;;;;;;3.73;3.30;;;;;;;;;;5095471;28;20799;-69
2022/07/01 10:54:52;;;;;;;4.03;3.63;;;;;;;;;;5095523;28;20437;-69
2022/07/01 10:57:24;;;;;;;3.77;3.47;;;;;;;;;;5096029;28;20430;-69
2022/07/01 10:59:52;;;;;;;3.70;3.40;;;;;;;;;;5095505;28;20450;-70
2022/07/01 11:02:20;;;;;;;3.90;3.60;;;;;;;;;;5094996;28;20997;-69
2022/07/01 11:04:47;;;;;;;6.27;3.87;;;;;;;;;;5095028;28;20528;-69
2022/07/01 11:07:14;;;;;;;5.07;3.23;;;;;;;;;;5095607;28;20450;-69
2022/07/01 11:09:43;;;;;;;4.00;2.80;;;;;;;;;;5094898;28;20539;-69
2022/07/01 11:12:11;;;;;;;4.90;3.03;;;;;;;;;;5094789;28;20931;-69
2022/07/01 11:14:38;;;;;;;6.73;3.00;;;;;;;;;;5095182;28;20440;-69
2022/07/01 11:17:06;;;;;;;4.63;2.93;;;;;;;;;;5095032;28;20859;-69
2022/07/01 11:19:33;;;;;;;3.13;2.90;;;;;;;;;;5095202;28;20482;-69
2022/07/01 11:22:00;;;;;;;3.33;2.80;;;;;;;;;;5094844;28;20453;-70
2022/07/01 11:24:28;;;;;;;3.30;2.40;;;;;;;;;;5094964;28;20507;-69
2022/07/01 11:27:01;;;;;;;2.90;2.70;;;;;;;;;;5094470;28;20484;-70
2022/07/01 11:29:30;;;;;;;3.33;2.97;;;;;;;;;;5094752;28;20421;-69
2022/07/01 11:31:57;;;;;;;3.50;2.67;;;;;;;;;;5094809;28;20467;-69
2022/07/01 11:34:25;;;;;;;3.17;2.50;;;;;;;;;;5094341;28;20533;-70
2022/07/01 11:39:37;;;;;;;4.03;2.90;;;;;;;;;;5094446;28;20400;-70
2022/07/01 11:42:07;;;;;;;3.77;3.10;;;;;;;;;;5094435;28;20534;-70
2022/07/01 11:44:35;;;;;;;5.10;2.80;;;;;;;;;;5094580;28;20524;-70
2022/07/01 11:47:04;;;;;;;3.40;2.60;;;;;;;;;;5094311;28;20438;-70
2022/07/01 11:49:31;;;;;;;4.37;2.77;;;;;;;;;;5094525;28;20564;-69
2022/07/01 11:51:59;;;;;;;3.63;3.10;;;;;;;;;;5094549;28;20440;-69
2022/07/01 11:54:26;;;;;;;4.93;2.80;;;;;;;;;;5094378;28;20438;-69
2022/07/01 11:56:53;;;;;;;3.90;2.60;;;;;;;;;;5094136;28;20546;-69
2022/07/01 11:59:22;;;;;;;4.67;2.43;;;;;;;;;;5093801;28;20528;-69
2022/07/01 12:01:53;;;;;;;2.93;2.63;;;;;;;;;;5094031;28;20528;-70
2022/07/01 12:04:21;;;;;;;4.33;2.43;;;;;;;;;;5094336;28;20438;-70
2022/07/01 12:06:49;;;;;;;3.40;2.30;;;;;;;;;;5093934;28;20437;-69
2022/07/01 12:09:17;;;;;;;2.53;2.33;;;;;;;;;;5094244;28;20525;-69
2022/07/01 12:11:46;;;;;;;7.83;2.40;;;;;;;;;;5094585;28;20482;-70
2022/07/01 12:14:14;;;;;;;3.20;2.50;;;;;;;;;;5093761;28;20454;-70
2022/07/01 12:16:43;;;;;;;4.10;2.20;;;;;;;;;;5093906;28;20548;-69
2022/07/01 12:19:10;;;;;;;3.27;2.50;;;;;;;;;;5093807;28;20545;-70
2022/07/01 12:21:48;;;;;;;3.30;2.50;;;;;;;;;;5093743;28;20477;-69
2022/07/01 12:24:18;;;;;;;2.50;2.10;;;;;;;;;;5094165;28;20439;-70
2022/07/01 12:26:55;;;;;;;4.17;2.60;;;;;;;;;;5093630;28;20449;-71
2022/07/01 12:29:23;;;;;;;4.03;2.00;;;;;;;;;;5094086;28;20422;-70
2022/07/01 12:31:59;;;;;;;3.10;1.80;;;;;;;;;;5093742;28;20485;-71
2022/07/01 12:34:38;;;;;;;2.30;2.03;;;;;;;;;;5093778;28;20472;-71
2022/07/01 12:37:09;;;;;;;3.10;2.10;;;;;;;;;;5093829;28;21002;-70
2022/07/01 12:39:43;;;;;;;1.90;1.70;;;;;;;;;;5093926;28;20442;-69
2022/07/01 12:42:10;;;;;;;2.13;1.93;;;;;;;;;;5093888;28;20802;-70
2022/07/01 12:44:45;;;;;;;1.93;1.83;;;;;;;;;;5093785;28;20478;-70
2022/07/01 12:47:21;;;;;;;1.77;1.53;;;;;;;;;;5093503;28;20418;-69
2022/07/01 12:49:48;;;;;;;4.30;2.17;;;;;;;;;;5093259;28;20425;-69
2022/07/01 12:52:25;;;;;;;2.30;2.07;;;;;;;;;;5093664;28;20527;-70
2022/07/01 12:54:52;;;;;;;3.80;1.90;;;;;;;;;;5093134;28;20598;-70
2022/07/01 12:57:30;;;;;;;3.53;1.70;;;;;;;;;;5093515;28;20471;-70
2022/07/01 12:59:57;;;;;;;2.37;1.80;;;;;;;;;;5093784;28;20432;-70
2022/07/01 13:02:26;;;;;;;3.30;1.80;;;;;;;;;;5093218;28;20480;-68
2022/07/01 13:04:53;;;;;;;1.53;1.43;;;;;;;;;;5093468;28;20532;-66
2022/07/01 13:07:20;;;;;;;2.97;1.50;;;;;;;;;;5093361;28;20925;-64
2022/07/01 13:09:47;;;;;;;1.93;1.40;;;;;;;;;;5094172;28;20471;-65
2022/07/01 13:12:15;;;;;;;1.70;1.60;;;;;;;;;;5097202;28;20511;-67
2022/07/01 13:14:42;;;;;;;3.03;1.90;;;;;;;;;;5097445;28;20534;-67
2022/07/01 13:17:09;;;;;;;2.47;1.77;;;;;;;;;;5097409;28;20513;-67
2022/07/01 13:19:38;;;;;;;3.27;1.60;;;;;;;;;;5096940;28;20432;-66
2022/07/01 13:22:05;;;;;;;4.30;1.90;;;;;;;;;;5096154;28;20467;-67
2022/07/01 13:24:32;;;;;;;1.87;1.53;;;;;;;;;;5096789;28;20467;-66
2022/07/01 13:27:00;;;;;;;4.73;2.00;;;;;;;;;;5096919;28;20450;-66
2022/07/01 13:29:27;;;;;;;2.17;1.70;;;;;;;;;;5096536;28;20455;-66
2022/07/01 13:31:54;;;;;;;2.70;1.90;;;;;;;;;;5096440;28;20559;-67
2022/07/01 13:34:22;;;;;;;3.83;1.80;;;;;;;;;;5096802;28;20527;-66
2022/07/01 13:36:50;;;;;;;2.23;1.80;;;;;;;;;;5096489;28;20472;-66
2022/07/01 13:39:17;;;;;;;1.63;1.40;;;;;;;;;;5096283;28;20535;-66
2022/07/01 13:41:45;;;;;;;22.00;2.00;;;;;;;;;;5096746;28;20452;-67
2022/07/01 13:44:12;;;;;;;2.97;1.80;;;;;;;;;;5096289;28;20438;-66
2022/07/01 13:46:40;;;;;;;1.67;1.57;;;;;;;;;;5096606;28;20440;-66
2022/07/01 13:49:08;;;;;;;2.10;1.73;;;;;;;;;;5096302;28;20561;-66
2022/07/01 13:51:35;;;;;;;3.80;1.80;;;;;;;;;;5096484;28;21111;-66
2022/07/01 13:54:04;;;;;;;3.03;1.90;;;;;;;;;;5096761;28;20824;-66
2022/07/01 13:56:31;;;;;;;2.63;1.80;;;;;;;;;;5095758;28;20519;-66
2022/07/01 13:58:58;;;;;;;2.37;1.67;;;;;;;;;;5096113;28;20443;-67
2022/07/01 14:01:25;;;;;;;2.23;1.87;;;;;;;;;;5095917;28;20530;-67
2022/07/01 14:03:53;;;;;;;1.60;1.50;;;;;;;;;;5094263;28;20538;-67
2022/07/01 14:06:20;;;;;;;4.30;1.87;;;;;;;;;;5092176;28;20448;-67
2022/07/01 14:08:47;;;;;;;1.47;1.37;;;;;;;;;;5095995;28;20529;-67
2022/07/01 14:11:16;;;;;;;3.97;1.80;;;;;;;;;;5095488;28;20475;-67
2022/07/01 14:13:43;;;;;;;3.47;1.80;;;;;;;;;;5095526;28;20529;-67
2022/07/01 14:16:10;;;;;;;2.53;1.37;;;;;;;;;;5095571;28;20518;-67
2022/07/01 14:18:38;;;;;;;2.77;2.13;;;;;;;;;;5095464;28;20443;-68
2022/07/01 14:21:06;;;;;;;4.20;1.77;;;;;;;;;;5094945;28;20967;-65
2022/07/01 14:23:34;;;;;;;5.73;1.87;;;;;;;;;;5095699;28;20519;-66
2022/07/01 14:26:01;;;;;;;2.70;1.43;;;;;;;;;;5095083;28;20952;-66
2022/07/01 14:28:30;;;;;;;2.20;1.83;;;;;;;;;;5095607;28;20526;-67
2022/07/01 14:30:57;;;;;;;3.80;1.50;;;;;;;;;;5095431;28;20552;-67
2022/07/01 14:33:25;;;;;;;5.53;1.70;;;;;;;;;;5095718;28;20435;-67
2022/07/01 14:35:52;;;;;;;1.50;1.40;;;;;;;;;;5095756;28;20527;-67
2022/07/01 14:38:19;;;;;;;1.50;1.40;;;;;;;;;;5095622;28;20464;-67
2022/07/01 14:40:47;;;;;;;1.50;1.40;;;;;;;;;;5095474;28;20524;-67
2022/07/01 14:43:17;;;;;;;3.47;1.80;;;;;;;;;;5096217;28;20436;-66
2022/07/01 14:45:47;;;;;;;3.37;1.20;;;;;;;;;;5095639;28;20456;-67
2022/07/01 14:48:14;;;;;;;1.60;1.50;;;;;;;;;;5095151;28;20834;-67
2022/07/01 14:50:42;;;;;;;4.33;1.23;;;;;;;;;;5094863;28;20593;-67